createdAt,value
2019-04-27T00:01:29.756Z,14.63
2019-04-27T00:05:51.137Z,14.00
2019-04-27T00:10:00.279Z,14.70
2019-04-27T00:14:03.816Z,15.17
2019-04-27T00:18:34.533Z,15.57
2019-04-27T00:22:47.060Z,16.37
2019-04-27T00:26:49.443Z,15.67
2019-04-27T00:30:53.100Z,15.70
2019-04-27T00:34:56.891Z,16.33
2019-04-27T00:39:05.400Z,14.77
2019-04-27T00:43:09.328Z,15.73
2019-04-27T00:47:11.682Z,16.50
2019-04-27T00:51:14.559Z,16.90
2019-04-27T00:55:16.941Z,15.43
2019-04-27T00:59:39.754Z,16.00
2019-04-27T01:04:10.599Z,14.20
2019-04-27T01:08:13.918Z,17.20
2019-04-27T01:12:16.728Z,15.17
2019-04-27T01:16:22.021Z,15.33
2019-04-27T01:20:22.976Z,15.17
2019-04-27T01:24:25.211Z,16.87
2019-04-27T01:28:31.895Z,15.50
2019-04-27T01:32:35.344Z,15.93
2019-04-27T01:36:39.134Z,16.30
2019-04-27T01:40:41.705Z,15.27
2019-04-27T01:44:44.019Z,18.17
2019-04-27T01:48:46.579Z,17.40
2019-04-27T01:52:48.878Z,15.90
2019-04-27T01:56:51.423Z,16.10
2019-04-27T02:01:11.105Z,18.13
2019-04-27T02:05:41.268Z,18.43
2019-04-27T02:09:43.578Z,17.27
2019-04-27T02:13:46.058Z,16.97
2019-04-27T02:17:49.013Z,15.80
2019-04-27T02:21:52.602Z,16.57
2019-04-27T02:25:54.865Z,16.20
2019-04-27T02:30:22.579Z,18.27
2019-04-27T02:34:30.258Z,16.73
2019-04-27T02:38:31.775Z,16.17
2019-04-27T02:42:42.377Z,15.90
2019-04-27T02:46:44.812Z,15.23
2019-04-27T02:50:49.951Z,15.33
2019-04-27T02:54:52.541Z,16.50
2019-04-27T02:58:55.225Z,16.90
2019-04-27T03:03:02.439Z,16.40
2019-04-27T03:07:04.902Z,18.13
2019-04-27T03:11:07.117Z,17.73
2019-04-27T03:15:23.039Z,16.63
2019-04-27T03:19:35.635Z,16.20
2019-04-27T03:23:37.872Z,16.37
2019-04-27T03:27:41.529Z,16.60
2019-04-27T03:31:47.317Z,14.43
2019-04-27T03:35:51.617Z,17.10
2019-04-27T03:39:52.334Z,15.97
2019-04-27T03:43:55.075Z,16.30
2019-04-27T03:48:00.198Z,15.90
2019-04-27T03:52:10.692Z,16.00
2019-04-27T03:56:39.352Z,16.40
2019-04-27T04:00:40.939Z,15.40
2019-04-27T04:04:43.246Z,15.77
2019-04-27T04:08:45.417Z,15.90
2019-04-27T04:13:13.101Z,15.27
2019-04-27T04:17:16.712Z,15.20
2019-04-27T04:21:19.436Z,15.40
2019-04-27T04:25:21.799Z,13.97
2019-04-27T04:29:23.903Z,14.80
2019-04-27T04:33:27.319Z,15.03
2019-04-27T04:37:29.765Z,14.27
2019-04-27T04:41:40.617Z,13.70
2019-04-27T04:45:52.709Z,14.03
2019-04-27T04:50:10.367Z,14.60
2019-04-27T04:53:59.863Z,14.07
2019-04-27T04:58:02.317Z,13.47
2019-04-27T05:02:04.612Z,11.33
2019-04-27T05:06:08.699Z,10.17
2019-04-27T05:10:10.986Z,11.27
2019-04-27T05:14:13.104Z,9.87
2019-04-27T05:18:16.360Z,9.80
2019-04-27T05:22:19.539Z,9.30
2019-04-27T05:26:21.952Z,9.63
2019-04-27T05:30:25.230Z,8.40
2019-04-27T05:34:29.261Z,8.07
2019-04-27T05:38:56.601Z,8.63
2019-04-27T05:43:00.263Z,8.63
2019-04-27T05:47:21.550Z,8.53
2019-04-27T05:51:23.778Z,8.10
2019-04-27T05:55:26.118Z,8.57
2019-04-27T05:59:29.796Z,8.27
2019-04-27T06:03:35.388Z,9.27
2019-04-27T06:07:37.417Z,7.83
2019-04-27T06:11:40.084Z,8.00
2019-04-27T06:15:42.385Z,8.50
2019-04-27T06:19:44.618Z,7.70
2019-04-27T06:23:48.717Z,8.33
2019-04-27T06:27:51.050Z,8.53
2019-04-27T06:31:54.984Z,7.40
2019-04-27T06:35:57.198Z,8.23
2019-04-27T06:39:59.900Z,8.73
2019-04-27T06:44:02.307Z,8.90
2019-04-27T06:48:04.524Z,8.47
2019-04-27T06:52:08.577Z,8.57
2019-04-27T06:56:10.635Z,8.57
2019-04-27T07:00:13.062Z,7.97
2019-04-27T07:04:15.168Z,8.90
2019-04-27T07:08:18.638Z,8.63
2019-04-27T07:12:21.008Z,9.77
2019-04-27T07:16:23.204Z,9.20
2019-04-27T07:20:25.427Z,8.80
2019-04-27T07:24:29.186Z,9.20
2019-04-27T07:28:31.439Z,8.47
2019-04-27T07:32:33.841Z,8.63
2019-04-27T07:36:36.508Z,8.27
2019-04-27T07:40:41.631Z,8.30
2019-04-27T07:44:47.483Z,9.03
2019-04-27T07:48:50.950Z,8.83
2019-04-27T07:52:55.052Z,8.70
2019-04-27T07:56:58.765Z,9.30
2019-04-27T08:01:01.045Z,8.63
2019-04-27T08:05:03.492Z,9.07
2019-04-27T08:09:06.793Z,8.60
2019-04-27T08:13:09.591Z,8.73
2019-04-27T08:17:11.917Z,9.70
2019-04-27T08:21:14.241Z,9.53
2019-04-27T08:25:16.297Z,9.83
2019-04-27T08:29:52.893Z,15.73
2019-04-27T08:33:55.030Z,9.40
2019-04-27T08:37:59.379Z,9.73
2019-04-27T08:42:02.065Z,9.97
2019-04-27T08:46:06.606Z,9.27
2019-04-27T08:50:09.207Z,9.80
2019-04-27T08:54:11.713Z,9.20
2019-04-27T08:58:13.950Z,9.40
2019-04-27T09:02:16.101Z,9.70
2019-04-27T09:06:19.033Z,9.57
2019-04-27T09:10:38.663Z,9.60
2019-04-27T09:14:45.224Z,10.03
2019-04-27T09:18:49.828Z,10.07
2019-04-27T09:22:54.056Z,10.10
2019-04-27T09:26:59.611Z,10.07
2019-04-27T09:31:02.832Z,9.27
2019-04-27T09:35:05.923Z,9.20
2019-04-27T09:39:11.742Z,9.13
2019-04-27T09:43:15.718Z,8.53
2019-04-27T09:47:18.308Z,8.50
2019-04-27T09:51:20.666Z,9.67
2019-04-27T09:55:22.960Z,8.47
2019-04-27T09:59:26.618Z,8.00
2019-04-27T10:03:28.838Z,8.93
2019-04-27T10:07:31.183Z,7.57
2019-04-27T10:11:33.319Z,7.40
2019-04-27T10:15:35.742Z,6.87
2019-04-27T10:19:37.972Z,5.67
2019-04-27T10:23:40.097Z,7.00
2019-04-27T10:27:45.714Z,6.00
2019-04-27T10:31:48.297Z,6.30
2019-04-27T10:35:51.331Z,5.97
2019-04-27T10:39:53.455Z,6.63
2019-04-27T10:43:55.766Z,6.00
2019-04-27T10:47:58.222Z,5.93
2019-04-27T10:52:00.529Z,6.20
2019-04-27T10:56:02.839Z,5.63
2019-04-27T11:00:06.766Z,6.20
2019-04-27T11:04:28.766Z,6.77
2019-04-27T11:08:30.716Z,6.30
2019-04-27T11:12:32.630Z,5.63
2019-04-27T11:16:35.937Z,6.00
2019-04-27T11:20:38.304Z,6.50
2019-04-27T11:24:40.563Z,6.23
2019-04-27T11:28:46.339Z,5.90
2019-04-27T11:32:48.807Z,6.40
2019-04-27T11:37:10.102Z,6.07
2019-04-27T11:41:12.342Z,6.00
2019-04-27T11:45:15.028Z,6.37
2019-04-27T11:49:19.200Z,5.87
2019-04-27T11:53:23.198Z,6.27
2019-04-27T11:57:25.641Z,6.27
2019-04-27T12:01:29.033Z,5.27
2019-04-27T12:05:31.266Z,6.03
2019-04-27T12:09:33.386Z,6.03
2019-04-27T12:13:35.915Z,6.77
2019-04-27T12:17:38.290Z,6.10
2019-04-27T12:21:40.370Z,6.30
2019-04-27T12:25:42.288Z,6.10
2019-04-27T12:30:26.070Z,6.47
2019-04-27T12:34:28.663Z,6.57
2019-04-27T12:38:30.884Z,6.17
2019-04-27T12:42:33.336Z,5.60
2019-04-27T12:46:35.553Z,5.73
2019-04-27T12:50:38.083Z,6.40
2019-04-27T12:54:52.326Z,6.47
2019-04-27T12:58:58.808Z,6.10
2019-04-27T13:03:00.707Z,6.83
2019-04-27T13:07:02.598Z,6.13
2019-04-27T13:11:05.945Z,6.00
2019-04-27T13:15:09.280Z,5.60
2019-04-27T13:19:11.115Z,6.47
2019-04-27T13:23:13.067Z,5.53
2019-04-27T13:27:16.623Z,6.63
2019-04-27T13:31:18.607Z,5.83
2019-04-27T13:35:20.529Z,6.07
2019-04-27T13:39:22.447Z,5.97
2019-04-27T13:43:32.442Z,6.00
2019-04-27T13:48:00.571Z,5.93
2019-04-27T13:52:16.098Z,6.63
2019-04-27T13:56:18.204Z,6.00
2019-04-27T14:00:21.074Z,5.80
2019-04-27T14:04:24.135Z,6.00
2019-04-27T14:08:26.108Z,6.60
2019-04-27T14:12:28.532Z,6.10
2019-04-27T14:16:30.435Z,6.23
2019-04-27T14:20:32.335Z,5.97
2019-04-27T14:24:40.437Z,6.43
2019-04-27T14:28:42.589Z,6.23
2019-04-27T14:32:44.518Z,7.00
2019-04-27T14:36:46.440Z,7.00
2019-04-27T14:40:50.322Z,6.80
2019-04-27T14:44:51.953Z,8.00
2019-04-27T14:48:53.788Z,9.63
2019-04-27T14:52:55.908Z,8.87
2019-04-27T14:56:58.959Z,8.53
2019-04-27T15:01:01.167Z,9.33
2019-04-27T15:05:03.122Z,8.18
2019-04-27T15:09:06.978Z,10.00
2019-04-27T15:13:08.946Z,10.03
2019-04-27T15:17:12.801Z,8.93
2019-04-27T15:21:14.958Z,9.68
2019-04-27T15:25:16.973Z,8.18
2019-04-27T15:29:25.046Z,8.53
2019-04-27T15:33:46.738Z,8.33
2019-04-27T15:37:57.138Z,8.73
2019-04-27T15:42:07.868Z,8.73
2019-04-27T15:46:05.103Z,8.30
2019-04-27T15:50:07.989Z,8.48
2019-04-27T15:54:11.353Z,7.70
2019-04-27T15:58:21.004Z,7.47
2019-04-27T16:02:18.555Z,8.07
2019-04-27T16:06:20.628Z,7.63
2019-04-27T16:10:22.705Z,7.63
2019-04-27T16:14:24.838Z,6.87
2019-04-27T16:18:31.031Z,7.60
2019-04-27T16:22:30.406Z,7.60
2019-04-27T16:26:32.264Z,7.33
2019-04-27T16:30:34.272Z,7.10
2019-04-27T16:34:37.858Z,6.97
2019-04-27T16:38:58.635Z,6.67
2019-04-27T16:43:00.782Z,6.27
2019-04-27T16:47:02.901Z,6.83
2019-04-27T16:51:06.658Z,6.27
2019-04-27T16:55:09.239Z,6.30
2019-04-27T16:59:38.652Z,6.07
2019-04-27T17:03:14.764Z,5.63
2019-04-27T17:07:18.814Z,6.57
2019-04-27T17:11:20.285Z,6.70
2019-04-27T17:15:42.279Z,6.70
2019-04-27T17:19:52.043Z,7.13
2019-04-27T17:23:56.938Z,6.10
2019-04-27T17:28:04.295Z,6.47
2019-04-27T17:32:08.873Z,6.10
2019-04-27T17:36:12.158Z,7.07
2019-04-27T17:40:15.480Z,6.60
2019-04-27T17:44:22.733Z,7.23
2019-04-27T17:48:21.600Z,6.53
2019-04-27T17:52:23.900Z,7.20
2019-04-27T17:56:35.353Z,6.73
2019-04-27T18:00:33.061Z,7.27
2019-04-27T18:04:37.730Z,9.47
2019-04-27T18:08:40.074Z,6.93
2019-04-27T18:12:40.523Z,14.80
2019-04-27T18:16:42.553Z,9.27
2019-04-27T18:20:44.480Z,7.63
2019-04-27T18:25:09.543Z,6.10
2019-04-27T18:29:10.706Z,5.83
2019-04-27T18:33:12.601Z,6.17
2019-04-27T18:37:18.495Z,5.60
2019-04-27T18:41:18.435Z,5.90
2019-04-27T18:45:20.527Z,5.20
2019-04-27T18:49:44.275Z,5.40
2019-04-27T18:53:46.163Z,5.60
2019-04-27T18:57:50.965Z,6.60
2019-04-27T19:01:52.101Z,7.67
2019-04-27T19:05:53.980Z,6.30
2019-04-27T19:09:55.798Z,6.07
2019-04-27T19:13:59.038Z,5.87
2019-04-27T19:18:01.583Z,6.03
2019-04-27T19:22:03.932Z,7.07
2019-04-27T19:26:33.752Z,6.27
2019-04-27T19:30:40.204Z,6.63
2019-04-27T19:34:42.005Z,5.73
2019-04-27T19:38:43.987Z,5.40
2019-04-27T19:42:45.831Z,5.53
2019-04-27T19:46:49.317Z,5.50
2019-04-27T19:50:51.459Z,4.70
2019-04-27T19:54:53.276Z,5.70
2019-04-27T19:58:58.184Z,6.17
2019-04-27T20:03:01.672Z,5.90
2019-04-27T20:07:04.616Z,6.57
2019-04-27T20:11:06.822Z,7.10
2019-04-27T20:15:09.137Z,10.00
2019-04-27T20:19:11.451Z,8.70
2019-04-27T20:23:13.452Z,9.40
2019-04-27T20:27:15.318Z,10.27
2019-04-27T20:31:17.218Z,10.37
2019-04-27T20:35:19.241Z,10.53
2019-04-27T20:39:22.442Z,11.30
2019-04-27T20:43:24.866Z,11.90
2019-04-27T20:47:27.103Z,12.40
2019-04-27T20:51:50.364Z,12.20
2019-04-27T20:55:51.115Z,12.27
2019-04-27T20:59:53.567Z,12.33
2019-04-27T21:03:58.134Z,12.43
2019-04-27T21:08:03.008Z,11.70
2019-04-27T21:12:05.266Z,11.43
2019-04-27T21:16:07.537Z,11.10
2019-04-27T21:20:11.399Z,11.27
2019-04-27T21:24:14.064Z,10.13
2019-04-27T21:28:18.880Z,10.97
2019-04-27T21:32:20.147Z,11.47
2019-04-27T21:36:22.359Z,10.47
2019-04-27T21:40:24.563Z,10.57
2019-04-27T21:44:28.329Z,10.07
2019-04-27T21:48:31.237Z,9.43
2019-04-27T21:52:35.281Z,8.37
2019-04-27T21:56:37.457Z,8.63
2019-04-27T22:00:57.558Z,7.77
2019-04-27T22:05:01.397Z,7.10
2019-04-27T22:09:07.447Z,6.00
2019-04-27T22:13:09.849Z,6.00
2019-04-27T22:17:13.119Z,6.60
2019-04-27T22:21:16.386Z,5.97
2019-04-27T22:25:21.709Z,5.50
2019-04-27T22:29:24.315Z,6.10
2019-04-27T22:33:26.633Z,4.57
2019-04-27T22:37:29.079Z,5.37
2019-04-27T22:41:48.738Z,5.20
2019-04-27T22:45:51.128Z,4.80
2019-04-27T22:49:53.726Z,4.63
2019-04-27T22:53:56.034Z,5.17
2019-04-27T22:58:04.220Z,4.87
2019-04-27T23:02:31.853Z,4.50
2019-04-27T23:06:34.138Z,3.80
2019-04-27T23:10:36.592Z,4.17
2019-04-27T23:14:38.616Z,4.27
2019-04-27T23:18:41.356Z,4.43
2019-04-27T23:22:43.567Z,4.70
2019-04-27T23:26:45.911Z,4.50
2019-04-27T23:31:12.220Z,4.73
2019-04-27T23:35:14.837Z,5.13
2019-04-27T23:39:16.901Z,4.20
2019-04-27T23:43:19.087Z,4.07
2019-04-27T23:47:20.983Z,4.87
2019-04-27T23:51:47.919Z,4.00
2019-04-27T23:55:50.271Z,4.30
2019-04-27T23:59:52.479Z,4.13
